Time;durP1;ratioP1;P1;durP2;ratioP2;P2;SDS_P1;SDS_P2;PMS_P1;PMS_P2;Temp;Humidity;BMP_temperature;BMP_pressure;BME280_temperature;BME280_humidity;BME280_pressure;Samples;Min_cycle;Max_cycle;Signal;HPM_P1;HPM_P2
2022/12/27 00:00:23;;;;;;;3.80;2.05;;;7.00;99.90;;;;;;5057533;28;20079;-68
2022/12/27 00:02:49;;;;;;;3.83;2.17;;;6.90;99.90;;;;;;5057211;28;20051;-68
2022/12/27 00:05:15;;;;;;;4.40;2.50;;;6.90;99.90;;;;;;5057588;28;20017;-68
2022/12/27 00:07:43;;;;;;;2.97;2.00;;;6.90;99.90;;;;;;5039326;28;20052;-68
2022/12/27 00:10:10;;;;;;;4.65;2.75;;;6.80;99.90;;;;;;5057344;28;20122;-68
2022/12/27 00:12:36;;;;;;;3.58;2.47;;;6.80;99.90;;;;;;5057245;28;20035;-68
2022/12/27 00:15:02;;;;;;;3.17;2.10;;;6.80;99.90;;;;;;5057109;28;20108;-68
2022/12/27 00:17:28;;;;;;;4.55;2.67;;;6.70;99.90;;;;;;5039104;28;20030;-68
2022/12/27 00:19:54;;;;;;;3.72;2.38;;;6.70;99.90;;;;;;5056758;28;20021;-68
2022/12/27 00:22:19;;;;;;;3.20;2.08;;;6.70;99.90;;;;;;5057179;28;20091;-68
2022/12/27 00:24:46;;;;;;;4.35;2.50;;;6.80;99.90;;;;;;5039398;28;20029;-68
2022/12/27 00:27:12;;;;;;;3.85;2.50;;;6.80;99.90;;;;;;5057077;28;20029;-68
2022/12/27 00:29:37;;;;;;;4.70;2.42;;;6.80;99.90;;;;;;5057004;28;20108;-67
2022/12/27 00:32:03;;;;;;;4.38;2.63;;;6.90;99.90;;;;;;5039110;28;20033;-68
2022/12/27 00:34:29;;;;;;;4.93;2.42;;;6.90;99.90;;;;;;5056615;28;20032;-68
2022/12/27 00:36:54;;;;;;;6.18;2.92;;;6.80;99.90;;;;;;5056900;28;20035;-68
2022/12/27 00:39:20;;;;;;;4.72;2.50;;;6.80;99.90;;;;;;5057332;28;20021;-68
2022/12/27 00:41:46;;;;;;;4.35;2.40;;;6.90;99.90;;;;;;5039008;28;20032;-68
2022/12/27 00:44:11;;;;;;;4.60;2.53;;;6.80;99.90;;;;;;5057349;28;20562;-68
2022/12/27 00:46:37;;;;;;;3.42;2.15;;;6.80;99.90;;;;;;5056613;28;20040;-68
2022/12/27 00:49:03;;;;;;;4.18;2.38;;;6.90;99.90;;;;;;5057239;28;20025;-68
2022/12/27 00:51:28;;;;;;;4.03;2.40;;;6.90;99.90;;;;;;5038969;28;20489;-68
2022/12/27 00:53:54;;;;;;;4.20;2.45;;;6.90;99.90;;;;;;5057090;28;20114;-68
2022/12/27 00:56:23;;;;;;;3.83;2.30;;;6.80;99.90;;;;;;5056825;28;20025;-68
2022/12/27 00:58:53;;;;;;;3.13;1.90;;;6.80;99.90;;;;;;5057146;28;20052;-68
2022/12/27 01:01:20;;;;;;;4.68;2.38;;;6.80;99.90;;;;;;5056454;28;20489;-68
2022/12/27 01:03:46;;;;;;;4.35;2.30;;;6.80;99.90;;;;;;5056826;28;20017;-68
2022/12/27 01:06:14;;;;;;;3.95;2.60;;;6.80;99.90;;;;;;5056789;28;20029;-68
2022/12/27 01:08:40;;;;;;;4.50;2.78;;;6.70;99.90;;;;;;5057015;28;20021;-68
2022/12/27 01:11:07;;;;;;;2.95;2.05;;;6.50;99.90;;;;;;5056644;28;20059;-68
2022/12/27 01:13:34;;;;;;;3.95;2.42;;;6.40;99.90;;;;;;5038869;28;20029;-68
2022/12/27 01:16:00;;;;;;;6.28;3.78;;;6.30;99.90;;;;;;5056592;28;20035;-68
2022/12/27 01:18:26;;;;;;;4.80;3.10;;;6.20;99.90;;;;;;5056676;28;20067;-68
2022/12/27 01:20:52;;;;;;;5.70;3.65;;;6.20;99.90;;;;;;5056899;28;20021;-68
2022/12/27 01:23:18;;;;;;;4.75;3.17;;;6.30;99.90;;;;;;5056764;28;20026;-68
2022/12/27 01:25:43;;;;;;;6.70;4.00;;;6.20;99.90;;;;;;5043676;28;20033;-68
2022/12/27 01:28:09;;;;;;;4.32;3.00;;;6.10;99.90;;;;;;5056585;28;20032;-68
2022/12/27 01:30:35;;;;;;;5.20;3.65;;;6.10;99.90;;;;;;5040346;28;20033;-68
2022/12/27 01:33:00;;;;;;;6.57;3.47;;;6.00;99.90;;;;;;5060338;28;20076;-68
2022/12/27 01:35:26;;;;;;;5.32;2.90;;;6.00;99.90;;;;;;5060241;28;20478;-68
2022/12/27 01:37:51;;;;;;;4.72;2.78;;;6.10;99.90;;;;;;5060172;28;20500;-68
2022/12/27 01:40:17;;;;;;;5.70;2.90;;;6.20;99.90;;;;;;5060525;28;20025;-68
2022/12/27 01:42:52;;;;;;;4.90;2.97;;;6.20;99.90;;;;;;5060250;28;20044;-68
2022/12/27 01:45:34;;;;;;;5.22;3.03;;;6.10;99.90;;;;;;5059767;28;20025;-68
2022/12/27 01:48:04;;;;;;;5.55;3.05;;;6.00;99.90;;;;;;5059992;28;20098;-68
2022/12/27 01:50:34;;;;;;;5.65;3.15;;;5.90;99.90;;;;;;5059959;28;20029;-68
2022/12/27 01:53:14;;;;;;;4.80;3.65;;;5.90;99.90;;;;;;5059873;28;20071;-68
2022/12/27 01:56:08;;;;;;;4.57;2.63;;;6.00;99.90;;;;;;5059981;28;20083;-68
2022/12/27 01:58:54;;;;;;;;;;;6.00;99.90;;;;;;5060159;28;20025;-68
2022/12/27 02:01:23;;;;;;;4.53;2.30;;;6.10;99.90;;;;;;5058576;28;19905;-68
2022/12/27 02:04:01;;;;;;;5.18;2.83;;;6.10;99.90;;;;;;5059791;28;20021;-68
2022/12/27 02:06:28;;;;;;;4.05;2.53;;;6.20;99.90;;;;;;5059663;28;20025;-68
2022/12/27 02:08:56;;;;;;;5.28;2.80;;;6.20;99.90;;;;;;5059727;28;20033;-68
2022/12/27 02:14:19;;;;;;;3.08;2.70;;;6.30;99.90;;;;;;5059647;28;20044;-68
2022/12/27 02:16:45;;;;;;;5.07;3.08;;;6.30;99.90;;;;;;5041116;28;20093;-68
2022/12/27 02:19:39;;;;;;;4.55;2.80;;;6.20;99.90;;;;;;5059400;28;20466;-68
2022/12/27 02:22:14;;;;;;;4.05;2.70;;;6.20;99.90;;;;;;5059367;28;20493;-68
2022/12/27 02:25:09;;;;;;;4.78;2.67;;;6.20;99.90;;;;;;5059532;28;20021;-68
2022/12/27 02:27:35;;;;;;;3.97;2.72;;;6.20;99.90;;;;;;5059405;28;20086;-68
2022/12/27 02:30:09;;;;;;;5.10;2.97;;;6.20;99.90;;;;;;5058966;28;20029;-68
2022/12/27 02:32:34;;;;;;;;;;;6.20;99.90;;;;;;5059525;28;20032;-68
2022/12/27 02:35:38;;;;;;;2.60;1.95;;;6.20;99.90;;;;;;5059228;28;19905;-68
2022/12/27 02:38:13;;;;;;;3.45;2.40;;;6.20;99.90;;;;;;5053689;28;20476;-68
2022/12/27 02:57:07;;;;;;;3.28;2.10;;;6.30;99.90;;;;;;5058815;28;20413;-68
2022/12/27 02:58:34;;;;;;;3.95;2.20;;;6.30;99.90;;;;;;5058528;28;20090;-68
2022/12/27 03:04:35;;;;;;;3.45;2.20;;;6.30;99.90;;;;;;5058551;28;20056;-68
2022/12/27 03:07:19;;;;;;;4.38;2.70;;;6.30;99.90;;;;;;5058503;28;20367;-68
2022/12/27 03:16:11;;;;;;;3.10;2.30;;;6.30;99.90;;;;;;5058079;28;20397;-68
2022/12/27 03:18:46;;;;;;;3.60;2.08;;;6.30;99.90;;;;;;5058076;28;20490;-68
2022/12/27 03:26:59;;;;;;;2.72;1.77;;;6.10;99.90;;;;;;5058555;28;20442;-68
2022/12/27 03:35:18;;;;;;;4.45;2.60;;;6.20;99.90;;;;;;5057982;28;20043;-68
2022/12/27 03:38:04;;;;;;;3.20;2.28;;;6.30;99.90;;;;;;5057856;28;20485;-68
2022/12/27 03:43:52;;;;;;;4.35;2.50;;;6.40;99.90;;;;;;5058250;28;20547;-68
2022/12/27 03:46:32;;;;;;;3.78;2.13;;;6.40;99.90;;;;;;5057392;28;20025;-68
2022/12/27 03:49:32;;;;;;;3.10;1.98;;;6.30;99.90;;;;;;5057779;28;20108;-68
2022/12/27 03:52:18;;;;;;;3.85;1.83;;;6.30;99.90;;;;;;5057932;28;20030;-68
2022/12/27 03:54:47;;;;;;;3.42;1.92;;;6.30;99.90;;;;;;5056586;28;20404;-68
2022/12/27 03:57:19;;;;;;;4.07;1.98;;;6.30;99.90;;;;;;5057710;28;20029;-68
2022/12/27 03:59:45;;;;;;;2.90;2.20;;;6.40;99.90;;;;;;5039365;28;20086;-68
2022/12/27 04:02:11;;;;;;;2.55;1.75;;;6.40;99.90;;;;;;5057383;28;20029;-68
2022/12/27 04:04:37;;;;;;;3.25;2.03;;;6.40;99.90;;;;;;5057619;28;20028;-68
2022/12/27 04:07:04;;;;;;;4.22;2.45;;;6.40;99.90;;;;;;5057437;28;20021;-68
2022/12/27 04:36:53;;;;;;;3.92;2.38;;;6.40;99.90;;;;;;5057119;28;20071;-68
2022/12/27 04:39:18;;;;;;;3.08;2.20;;;6.40;99.90;;;;;;5057161;28;20021;-68
2022/12/27 04:55:57;;;;;;;3.75;2.08;;;6.30;99.90;;;;;;4995562;28;20113;-68
2022/12/27 04:58:23;;;;;;;3.15;2.30;;;6.30;99.90;;;;;;4979319;28;20113;-68
2022/12/27 05:03:45;;;;;;;3.80;2.28;;;6.30;99.90;;;;;;4985810;28;20031;-69
2022/12/27 05:06:11;;;;;;;3.55;2.40;;;6.30;99.90;;;;;;5059746;28;20049;-68
2022/12/27 05:14:10;;;;;;;3.05;1.90;;;6.20;99.90;;;;;;5060780;28;20036;-68
2022/12/27 05:16:41;;;;;;;4.07;2.50;;;6.20;99.90;;;;;;5042325;28;20420;-70
2022/12/27 05:19:09;;;;;;;3.55;1.92;;;6.20;99.90;;;;;;5042566;28;20116;-68
2022/12/27 05:25:33;;;;;;;3.85;2.38;;;6.10;99.90;;;;;;5042472;28;20075;-68
2022/12/27 05:27:09;;;;;;;3.72;2.28;;;6.10;99.90;;;;;;5061015;28;20091;-68
2022/12/27 05:29:35;;;;;;;4.15;2.17;;;6.10;99.90;;;;;;5060285;28;20037;-68
2022/12/27 05:32:00;;;;;;;2.58;1.92;;;6.10;99.90;;;;;;5060125;28;20021;-68
2022/12/27 05:34:26;;;;;;;3.28;1.58;;;6.10;99.90;;;;;;5060285;28;20028;-68
2022/12/27 05:36:52;;;;;;;3.22;1.92;;;6.10;99.90;;;;;;5060007;28;20404;-68
2022/12/27 05:39:17;;;;;;;4.15;1.75;;;6.10;99.90;;;;;;5060192;28;20090;-68
2022/12/27 05:41:43;;;;;;;4.43;2.25;;;6.10;99.90;;;;;;5042113;28;20020;-68
2022/12/27 05:44:09;;;;;;;3.05;1.83;;;6.10;99.90;;;;;;5060107;28;20025;-68
2022/12/27 05:46:34;;;;;;;3.70;2.10;;;6.10;99.90;;;;;;5059616;28;20497;-68
2022/12/27 05:49:00;;;;;;;3.20;2.08;;;6.10;99.90;;;;;;5060226;28;20033;-68
2022/12/27 05:51:26;;;;;;;2.88;1.90;;;6.10;99.90;;;;;;5059867;28;20029;-68
2022/12/27 05:53:51;;;;;;;4.18;2.08;;;6.10;99.90;;;;;;5059971;28;20443;-68
2022/12/27 05:56:19;;;;;;;3.03;2.13;;;6.10;99.90;;;;;;5059747;28;20036;-68
2022/12/27 05:58:45;;;;;;;3.17;1.73;;;6.10;99.90;;;;;;5059844;28;20017;-68
2022/12/27 06:01:14;;;;;;;3.60;1.88;;;6.10;99.90;;;;;;5041474;28;20017;-68
2022/12/27 06:03:40;;;;;;;3.13;1.83;;;6.10;99.90;;;;;;5059522;28;20025;-68
2022/12/27 06:06:07;;;;;;;3.63;1.95;;;6.10;99.90;;;;;;5041628;28;20021;-68
2022/12/27 06:08:33;;;;;;;3.17;2.00;;;6.10;99.90;;;;;;5059682;28;20024;-68
2022/12/27 06:11:03;;;;;;;2.92;1.80;;;6.10;99.90;;;;;;5059045;28;20080;-68
2022/12/27 06:13:29;;;;;;;2.33;1.70;;;6.00;99.90;;;;;;5059822;28;20075;-68
2022/12/27 06:15:58;;;;;;;2.70;1.38;;;6.00;99.90;;;;;;5058967;28;20221;-68
2022/12/27 06:18:24;;;;;;;2.72;1.70;;;6.00;99.90;;;;;;5040714;28;20040;-68
2022/12/27 06:20:49;;;;;;;4.18;2.00;;;6.00;99.90;;;;;;5059432;28;20025;-68
2022/12/27 06:23:15;;;;;;;3.30;1.85;;;6.00;99.90;;;;;;5059619;28;20025;-68
2022/12/27 06:25:41;;;;;;;2.85;1.80;;;6.00;99.90;;;;;;5059188;28;20051;-68
2022/12/27 06:28:06;;;;;;;2.40;1.40;;;6.00;99.90;;;;;;5059344;28;20114;-68
2022/12/27 06:30:32;;;;;;;2.78;1.60;;;6.00;99.90;;;;;;5058860;28;20025;-68
2022/12/27 06:32:57;;;;;;;3.03;1.70;;;6.00;99.90;;;;;;5059121;28;20086;-68
2022/12/27 06:35:23;;;;;;;1.75;1.30;;;6.00;99.90;;;;;;5058879;28;20029;-68
2022/12/27 06:37:49;;;;;;;2.42;1.40;;;5.90;99.90;;;;;;5059057;28;20040;-68
2022/12/27 06:40:14;;;;;;;2.05;1.38;;;5.80;99.90;;;;;;5059170;28;20469;-68
2022/12/27 06:42:40;;;;;;;2.22;1.20;;;5.70;99.90;;;;;;5059259;28;20371;-68
2022/12/27 06:45:08;;;;;;;2.33;1.35;;;5.80;99.90;;;;;;5058611;28;20533;-68
2022/12/27 06:47:33;;;;;;;1.98;1.40;;;5.80;99.90;;;;;;5059176;28;20021;-68
2022/12/27 06:49:59;;;;;;;3.85;1.73;;;5.70;99.90;;;;;;5058908;28;20405;-68
2022/12/27 06:52:25;;;;;;;2.50;1.58;;;5.70;99.90;;;;;;5040985;28;20036;-68
2022/12/27 06:54:50;;;;;;;2.28;1.67;;;5.60;99.90;;;;;;5058841;28;20035;-68
2022/12/27 06:57:16;;;;;;;1.88;1.30;;;5.60;99.90;;;;;;5058683;28;20488;-68
2022/12/27 06:59:42;;;;;;;1.45;1.20;;;5.60;99.90;;;;;;5058520;28;20079;-68
2022/12/27 07:02:10;;;;;;;1.95;1.10;;;5.60;99.90;;;;;;5058611;28;20031;-68
2022/12/27 07:04:35;;;;;;;2.35;1.33;;;5.70;99.90;;;;;;5058695;28;20096;-68
2022/12/27 07:07:01;;;;;;;3.53;1.63;;;5.60;99.90;;;;;;5058684;28;20067;-68
2022/12/27 07:09:26;;;;;;;2.55;1.20;;;5.60;99.90;;;;;;5058634;28;20876;-68
2022/12/27 07:11:52;;;;;;;2.45;1.40;;;5.60;99.90;;;;;;5058297;28;20045;-69
2022/12/27 07:14:18;;;;;;;2.17;1.00;;;5.70;99.90;;;;;;5058211;28;20017;-68
2022/12/27 07:16:44;;;;;;;2.58;1.38;;;5.80;99.90;;;;;;5058270;28;20089;-68
2022/12/27 07:19:10;;;;;;;1.27;0.95;;;5.70;99.90;;;;;;5058338;28;20026;-68
2022/12/27 07:21:36;;;;;;;2.13;1.13;;;5.60;99.90;;;;;;5058519;28;20028;-68
2022/12/27 07:24:01;;;;;;;4.00;1.15;;;5.60;99.90;;;;;;5058176;28;20021;-68
2022/12/27 07:26:29;;;;;;;2.42;1.45;;;5.50;99.90;;;;;;5058328;28;20055;-68
2022/12/27 07:28:59;;;;;;;2.45;1.48;;;5.50;99.90;;;;;;5057950;28;20425;-68
2022/12/27 07:31:28;;;;;;;2.33;1.40;;;5.50;99.90;;;;;;5057752;28;20049;-68
2022/12/27 07:33:54;;;;;;;1.60;1.02;;;5.60;99.90;;;;;;5058086;28;20048;-68
2022/12/27 07:36:23;;;;;;;3.65;1.30;;;5.60;99.90;;;;;;5057784;28;20029;-68
2022/12/27 07:38:49;;;;;;;2.95;1.00;;;5.60;99.90;;;;;;5057972;28;20017;-68
2022/12/27 07:41:15;;;;;;;1.90;1.02;;;5.60;99.90;;;;;;5057970;28;20146;-68
2022/12/27 07:43:43;;;;;;;2.05;1.15;;;5.50;99.90;;;;;;5057879;28;20020;-68
2022/12/27 07:46:11;;;;;;;1.88;1.17;;;5.50;99.90;;;;;;5057605;28;20017;-68
2022/12/27 07:48:37;;;;;;;1.92;0.98;;;5.50;99.90;;;;;;5057713;28;20210;-68
2022/12/27 07:51:04;;;;;;;1.63;1.30;;;5.50;99.90;;;;;;5057714;28;20063;-68
2022/12/27 07:53:29;;;;;;;1.73;0.90;;;5.50;99.90;;;;;;5039893;28;20017;-68
2022/12/27 07:55:55;;;;;;;2.42;1.17;;;5.50;99.90;;;;;;5057708;28;20077;-68
2022/12/27 07:58:21;;;;;;;1.92;1.20;;;5.60;99.90;;;;;;5057626;28;20025;-68
2022/12/27 08:00:49;;;;;;;1.85;1.13;;;5.60;99.90;;;;;;5039369;28;20033;-68
2022/12/27 08:03:14;;;;;;;3.05;1.50;;;5.50;99.90;;;;;;5057460;28;20025;-68
2022/12/27 08:05:51;;;;;;;1.00;0.73;;;5.60;99.90;;;;;;5057535;28;20114;-68
2022/12/27 08:08:21;;;;;;;2.25;1.10;;;5.60;99.90;;;;;;5057534;28;20029;-68
2022/12/27 08:10:47;;;;;;;2.60;1.15;;;5.70;99.90;;;;;;5057103;28;20517;-68
2022/12/27 08:13:13;;;;;;;2.83;1.38;;;5.70;99.90;;;;;;5057068;28;20060;-68
2022/12/27 08:15:41;;;;;;;1.88;1.17;;;5.60;99.90;;;;;;5056990;28;20025;-68
2022/12/27 08:18:07;;;;;;;1.73;1.02;;;5.60;99.90;;;;;;5057204;28;20052;-68
2022/12/27 08:20:33;;;;;;;1.50;1.00;;;5.60;99.90;;;;;;5057250;28;20389;-68
2022/12/27 08:22:58;;;;;;;3.42;1.20;;;5.60;99.90;;;;;;5057389;28;20063;-68
2022/12/27 08:25:24;;;;;;;1.85;1.10;;;5.60;99.90;;;;;;5039240;28;20037;-68
2022/12/27 08:27:50;;;;;;;1.70;1.08;;;5.60;99.90;;;;;;5057334;28;20078;-68
2022/12/27 08:30:16;;;;;;;1.27;1.00;;;5.60;99.90;;;;;;5056867;28;20029;-68
2022/12/27 08:32:41;;;;;;;1.40;1.13;;;5.60;99.90;;;;;;5039234;28;20040;-68
2022/12/27 08:35:07;;;;;;;3.00;1.27;;;5.60;99.90;;;;;;5057060;28;20063;-68
2022/12/27 08:37:33;;;;;;;2.72;1.33;;;5.60;99.90;;;;;;5056990;28;20025;-68
2022/12/27 08:39:58;;;;;;;1.88;1.10;;;5.70;99.90;;;;;;5057981;28;20017;-68
2022/12/27 08:42:24;;;;;;;2.05;1.30;;;5.70;99.90;;;;;;5043367;28;20485;-68
2022/12/27 08:44:50;;;;;;;1.17;0.82;;;5.70;99.90;;;;;;5060901;28;20021;-68
2022/12/27 08:47:16;;;;;;;1.38;0.93;;;5.70;99.90;;;;;;5060961;28;20025;-68
2022/12/27 08:49:41;;;;;;;2.63;1.27;;;5.70;99.90;;;;;;5061111;28;20025;-68
2022/12/27 08:52:07;;;;;;;2.03;1.05;;;5.80;99.90;;;;;;5061153;28;20067;-68
2022/12/27 08:54:32;;;;;;;1.90;1.17;;;5.90;99.90;;;;;;5061037;28;20104;-68
2022/12/27 08:56:58;;;;;;;1.88;1.08;;;5.90;99.90;;;;;;5061028;28;20021;-68
2022/12/27 08:59:23;;;;;;;2.40;1.25;;;5.90;99.90;;;;;;5060642;28;20786;-68
2022/12/27 09:01:49;;;;;;;2.58;1.50;;;5.90;99.90;;;;;;5061002;28;20021;-68
2022/12/27 09:04:15;;;;;;;3.25;1.25;;;6.00;99.90;;;;;;5060761;28;20025;-68
2022/12/27 09:06:41;;;;;;;1.38;1.05;;;6.10;99.90;;;;;;5061023;28;20029;-68
2022/12/27 09:09:06;;;;;;;2.00;1.38;;;6.20;99.90;;;;;;5060682;28;20047;-68
2022/12/27 09:11:33;;;;;;;3.17;1.38;;;6.20;99.90;;;;;;5060682;28;20049;-68
2022/12/27 09:14:02;;;;;;;3.55;1.60;;;6.30;99.90;;;;;;5060503;28;20057;-68
2022/12/27 09:16:28;;;;;;;3.17;1.30;;;6.30;99.90;;;;;;5060411;28;20041;-68
2022/12/27 09:18:57;;;;;;;2.13;1.58;;;6.40;99.90;;;;;;5060389;28;20809;-68
2022/12/27 09:21:25;;;;;;;4.82;1.85;;;6.50;99.90;;;;;;5060492;28;20078;-68
2022/12/27 09:23:51;;;;;;;3.50;1.73;;;6.50;99.90;;;;;;5042535;28;20516;-68
2022/12/27 09:26:22;;;;;;;2.60;1.60;;;6.50;99.90;;;;;;5060434;28;20064;-69
2022/12/27 09:28:49;;;;;;;3.85;2.05;;;6.60;99.90;;;;;;5060315;28;20017;-68
2022/12/27 09:31:16;;;;;;;2.65;1.58;;;6.60;99.90;;;;;;5060108;28;20029;-68
2022/12/27 09:33:42;;;;;;;4.00;1.73;;;6.60;99.90;;;;;;5042289;28;20021;-68
2022/12/27 09:36:23;;;;;;;4.68;2.22;;;6.70;99.90;;;;;;5060142;28;20398;-68
2022/12/27 09:38:51;;;;;;;4.05;1.80;;;6.70;99.90;;;;;;5047969;28;20025;-68
2022/12/27 09:41:39;;;;;;;3.85;1.80;;;6.70;99.90;;;;;;5060115;28;20017;-68
2022/12/27 09:44:26;;;;;;;3.25;1.80;;;6.80;99.90;;;;;;5059991;28;20025;-68
2022/12/27 09:47:20;;;;;;;3.80;1.60;;;6.80;99.90;;;;;;5060123;28;20508;-68
2022/12/27 09:49:59;;;;;;;4.35;1.85;;;6.90;99.90;;;;;;5042751;28;20127;-68
2022/12/27 09:52:40;;;;;;;2.85;1.90;;;6.90;99.90;;;;;;5058752;28;20028;-68
2022/12/27 09:55:22;;;;;;;3.75;1.63;;;7.00;99.90;;;;;;5060087;28;20021;-69
2022/12/27 09:57:49;;;;;;;2.97;1.80;;;7.00;99.90;;;;;;5041794;28;20115;-68
2022/12/27 10:00:22;;;;;;;3.00;2.00;;;7.00;99.90;;;;;;5041723;28;20035;-68
2022/12/27 10:02:50;;;;;;;3.60;1.67;;;7.10;99.90;;;;;;5059615;28;20070;-68
2022/12/27 10:05:28;;;;;;;3.47;1.98;;;7.10;99.90;;;;;;5060027;28;20084;-68
2022/12/27 10:08:09;;;;;;;4.15;2.20;;;7.10;99.90;;;;;;5041776;28;20036;-68
2022/12/27 10:10:40;;;;;;;2.78;1.70;;;7.20;99.90;;;;;;5059672;28;20081;-68
2022/12/27 10:13:27;;;;;;;3.78;1.75;;;7.30;99.90;;;;;;5059863;28;20028;-68
2022/12/27 10:15:55;;;;;;;3.22;1.50;;;7.40;99.90;;;;;;5059364;28;20029;-68
2022/12/27 10:18:40;;;;;;;3.72;1.90;;;7.50;99.90;;;;;;5059419;28;20037;-68
2022/12/27 10:21:26;;;;;;;3.55;1.70;;;7.60;99.90;;;;;;5059294;28;20506;-68
2022/12/27 10:23:56;;;;;;;3.55;2.00;;;7.60;99.90;;;;;;5059260;28;20028;-68
2022/12/27 10:26:22;;;;;;;3.85;1.80;;;7.70;99.90;;;;;;5041453;28;20088;-68
2022/12/27 10:28:58;;;;;;;3.65;1.80;;;7.80;99.90;;;;;;5059325;28;20075;-69
2022/12/27 10:31:25;;;;;;;3.55;1.73;;;7.80;99.90;;;;;;5041046;28;20021;-68
2022/12/27 10:33:51;;;;;;;5.95;2.28;;;7.80;99.90;;;;;;5041323;28;20025;-69
2022/12/27 10:36:26;;;;;;;4.20;1.90;;;7.80;99.90;;;;;;5059057;28;20087;-68
2022/12/27 10:38:53;;;;;;;2.63;1.60;;;7.80;99.90;;;;;;5059153;28;20021;-68
2022/12/27 10:41:35;;;;;;;2.85;1.70;;;7.80;99.90;;;;;;5059039;28;20017;-69
2022/12/27 10:44:00;;;;;;;3.58;1.50;;;7.80;99.90;;;;;;5040886;28;20029;-69
2022/12/27 10:46:31;;;;;;;3.30;1.70;;;7.80;99.90;;;;;;5058728;28;20024;-69
2022/12/27 10:49:02;;;;;;;2.95;1.77;;;7.80;99.90;;;;;;5058920;28;20047;-68
2022/12/27 10:51:39;;;;;;;2.83;1.55;;;7.80;99.90;;;;;;5058696;28;20393;-69
2022/12/27 10:54:13;;;;;;;2.88;1.90;;;7.80;99.90;;;;;;5040831;28;20032;-68
2022/12/27 10:56:40;;;;;;;3.47;1.50;;;7.90;99.90;;;;;;5058790;28;20068;-69
2022/12/27 10:59:16;;;;;;;4.35;1.80;;;7.90;99.90;;;;;;5058217;28;20025;-69
2022/12/27 11:01:44;;;;;;;5.55;1.90;;;8.00;99.90;;;;;;5040608;28;20048;-69
2022/12/27 11:04:12;;;;;;;3.20;1.60;;;8.00;99.90;;;;;;5057973;28;20021;-69
2022/12/27 11:06:39;;;;;;;2.75;1.17;;;8.10;99.90;;;;;;5058676;28;20146;-69
2022/12/27 11:09:28;;;;;;;4.95;1.70;;;8.10;99.90;;;;;;5040431;28;20025;-69
2022/12/27 11:12:23;;;;;;;1.92;1.27;;;8.20;99.90;;;;;;5058201;28;20049;-70
2022/12/27 11:14:59;;;;;;;2.95;1.58;;;8.30;99.90;;;;;;5058146;28;20115;-69
2022/12/27 11:17:39;;;;;;;2.13;1.38;;;8.30;99.90;;;;;;5058010;28;20104;-69
2022/12/27 11:20:21;;;;;;;4.53;1.65;;;8.40;99.90;;;;;;5058231;28;20032;-69
2022/12/27 11:22:58;;;;;;;2.03;1.25;;;8.40;99.90;;;;;;5058272;28;20385;-69
2022/12/27 11:25:26;;;;;;;3.47;1.45;;;8.50;99.90;;;;;;5058131;28;20384;-69
2022/12/27 11:28:18;;;;;;;1.92;1.02;;;8.50;99.90;;;;;;5058225;28;20025;-69
2022/12/27 11:30:54;;;;;;;3.85;1.40;;;8.60;99.90;;;;;;5029985;28;20045;-69
2022/12/27 11:33:27;;;;;;;2.90;1.17;;;8.70;99.90;;;;;;5057707;28;20400;-69
2022/12/27 11:35:56;;;;;;;2.40;1.30;;;8.80;99.90;;;;;;5058020;28;20432;-69
2022/12/27 11:38:30;;;;;;;2.20;1.23;;;8.90;99.90;;;;;;5057763;28;20036;-69
2022/12/27 11:41:06;;;;;;;2.70;1.40;;;8.90;99.90;;;;;;5057882;28;20029;-69
2022/12/27 11:43:42;;;;;;;2.10;1.20;;;9.00;99.90;;;;;;5057927;28;20020;-69
2022/12/27 11:46:20;;;;;;;2.33;1.15;;;9.10;99.90;;;;;;5063547;28;20100;-69
2022/12/27 11:48:53;;;;;;;3.10;1.35;;;9.10;99.90;;;;;;5067100;28;20020;-69
2022/12/27 11:51:49;;;;;;;2.58;1.20;;;9.20;99.90;;;;;;5059681;28;20021;-69
2022/12/27 11:54:40;;;;;;;3.08;1.30;;;9.30;99.90;;;;;;5024850;28;20033;-69
2022/12/27 11:57:12;;;;;;;3.88;1.15;;;9.30;99.90;;;;;;5057605;28;20094;-69
2022/12/27 12:00:13;;;;;;;3.60;1.40;;;9.30;99.90;;;;;;5057298;28;20436;-69
2022/12/27 12:02:58;;;;;;;3.95;1.20;;;9.40;99.90;;;;;;5055451;28;20036;-69
2022/12/27 12:06:03;;;;;;;3.63;1.27;;;9.50;99.90;;;;;;5060125;28;20025;-68
2022/12/27 12:09:26;;;;;;;2.42;1.20;;;9.60;99.90;;;;;;5056042;28;20109;-69
2022/12/27 12:12:07;;;;;;;1.90;0.90;;;9.60;99.90;;;;;;4977496;28;20549;-69
2022/12/27 12:14:59;;;;;;;4.55;1.70;;;9.60;99.90;;;;;;5002450;28;20030;-69
2022/12/27 12:17:53;;;;;;;2.17;1.10;;;9.60;99.90;;;;;;5052662;28;20469;-69
2022/12/27 12:20:39;;;;;;;3.70;1.50;;;9.50;99.90;;;;;;5033064;28;20068;-69
2022/12/27 12:23:30;;;;;;;4.15;1.00;;;9.50;99.90;;;;;;5065557;28;20059;-69
2022/12/27 12:26:16;;;;;;;3.97;1.13;;;9.60;99.90;;;;;;5065491;28;20392;-69
2022/12/27 12:29:04;;;;;;;3.58;1.10;;;9.60;99.90;;;;;;5064655;28;20378;-69
2022/12/27 12:32:23;;;;;;;3.10;0.88;;;9.60;99.90;;;;;;5075630;28;20009;-69
2022/12/27 12:34:55;;;;;;;4.20;1.23;;;9.60;99.90;;;;;;5001640;28;20069;-69
2022/12/27 12:37:21;;;;;;;4.43;1.13;;;9.70;99.90;;;;;;4998395;28;20110;-69
2022/12/27 12:40:03;;;;;;;1.75;0.88;;;9.70;99.90;;;;;;5041841;28;20068;-69
2022/12/27 12:42:29;;;;;;;2.33;0.70;;;9.70;99.90;;;;;;5077844;28;20015;-69
2022/12/27 12:45:23;;;;;;;3.05;1.00;;;9.70;99.90;;;;;;5076219;28;20461;-69
2022/12/27 12:48:19;;;;;;;2.15;1.02;;;9.70;99.90;;;;;;5064943;28;20407;-69
2022/12/27 12:51:08;;;;;;;2.63;1.30;;;9.70;99.90;;;;;;5074694;28;20033;-69
2022/12/27 12:53:52;;;;;;;1.67;0.88;;;9.70;99.90;;;;;;5076094;28;20531;-69
2022/12/27 12:56:30;;;;;;;3.10;0.98;;;9.70;99.90;;;;;;5074851;28;20104;-69
2022/12/27 12:59:15;;;;;;;1.83;0.85;;;9.70;99.90;;;;;;5076476;28;20029;-69
2022/12/27 13:01:51;;;;;;;1.95;1.08;;;9.80;99.90;;;;;;5064029;28;20021;-69
2022/12/27 13:04:48;;;;;;;3.17;1.23;;;9.80;99.90;;;;;;5076538;28;20032;-69
2022/12/27 13:07:19;;;;;;;3.10;1.00;;;9.80;99.90;;;;;;5035386;28;20492;-69
2022/12/27 13:09:57;;;;;;;2.13;1.00;;;9.90;99.90;;;;;;5061735;28;20032;-69
2022/12/27 13:12:39;;;;;;;2.28;1.05;;;10.00;99.90;;;;;;5058777;28;20405;-69
2022/12/27 13:15:11;;;;;;;1.20;0.77;;;10.00;99.90;;;;;;5076498;28;20028;-69
2022/12/27 13:18:02;;;;;;;2.08;1.00;;;10.00;99.90;;;;;;5063413;28;20370;-69
2022/12/27 13:20:52;;;;;;;2.20;0.95;;;10.00;99.90;;;;;;5058569;28;20032;-69
2022/12/27 13:23:45;;;;;;;1.65;0.85;;;10.00;99.90;;;;;;5058699;28;20029;-69
2022/12/27 13:26:32;;;;;;;2.25;0.93;;;10.00;99.90;;;;;;5060149;28;20087;-69
2022/12/27 13:29:04;;;;;;;2.25;0.90;;;10.10;99.90;;;;;;5080391;28;20075;-69
2022/12/27 13:31:46;;;;;;;2.03;0.88;;;10.10;99.90;;;;;;5080244;28;20468;-69
2022/12/27 13:34:59;;;;;;;2.22;0.80;;;10.10;99.90;;;;;;5080236;28;20017;-69
2022/12/27 13:37:37;;;;;;;2.80;0.82;;;10.10;99.90;;;;;;5035729;28;20128;-69
2022/12/27 13:40:33;;;;;;;1.52;1.00;;;10.10;99.90;;;;;;5080018;28;20484;-69
2022/12/27 13:43:11;;;;;;;2.47;0.80;;;10.10;99.90;;;;;;5080053;28;20025;-69
2022/12/27 13:45:54;;;;;;;2.63;0.98;;;10.20;99.90;;;;;;5080097;28;20024;-69
2022/12/27 13:49:02;;;;;;;2.25;1.02;;;10.20;99.90;;;;;;5079903;28;20032;-69
2022/12/27 13:51:49;;;;;;;2.40;0.90;;;10.30;99.90;;;;;;5065973;28;20029;-69
2022/12/27 13:54:31;;;;;;;2.88;0.73;;;10.40;99.90;;;;;;5079148;28;20067;-69
2022/12/27 13:56:57;;;;;;;3.63;1.00;;;10.40;99.90;;;;;;5065988;28;20016;-69
2022/12/27 13:59:49;;;;;;;5.80;1.38;;;10.50;99.90;;;;;;5068771;28;20026;-69
2022/12/27 14:02:40;;;;;;;3.55;0.80;;;10.50;99.90;;;;;;5079295;28;20033;-69
2022/12/27 14:05:30;;;;;;;3.33;1.10;;;10.50;99.90;;;;;;5079675;28;20447;-69
2022/12/27 14:08:30;;;;;;;4.13;1.15;;;10.50;99.90;;;;;;5066947;28;20404;-69
2022/12/27 14:10:55;;;;;;;5.57;1.40;;;10.50;99.90;;;;;;5079379;28;20053;-69
2022/12/27 14:13:41;;;;;;;5.53;1.42;;;10.50;99.90;;;;;;5079921;28;20587;-69
2022/12/27 14:16:24;;;;;;;3.08;1.02;;;10.60;99.90;;;;;;5079158;28;20042;-69
2022/12/27 14:19:11;;;;;;;4.95;1.00;;;10.60;99.90;;;;;;5061377;28;20024;-69
2022/12/27 14:21:52;;;;;;;1.65;0.90;;;10.60;99.90;;;;;;5079411;28;20024;-69
2022/12/27 14:24:42;;;;;;;4.57;1.20;;;10.60;99.90;;;;;;5061412;28;20021;-69
2022/12/27 14:27:20;;;;;;;5.43;1.42;;;10.60;99.90;;;;;;5079291;28;20067;-72
2022/12/27 14:30:00;;;;;;;5.93;1.52;;;10.60;99.90;;;;;;5079200;28;20036;-68
2022/12/27 14:32:47;;;;;;;2.75;1.17;;;10.60;99.90;;;;;;5061021;28;20071;-69
2022/12/27 14:35:44;;;;;;;3.10;0.90;;;10.70;99.90;;;;;;5079079;28;20053;-69
2022/12/27 14:38:24;;;;;;;2.58;1.10;;;10.70;99.90;;;;;;5073767;28;20431;-69
2022/12/27 14:41:11;;;;;;;4.07;1.10;;;10.70;99.90;;;;;;5079144;28;20449;-69
2022/12/27 14:43:40;;;;;;;2.65;0.90;;;10.70;99.90;;;;;;5079105;28;20017;-69
2022/12/27 14:46:27;;;;;;;2.88;0.80;;;10.70;99.90;;;;;;5078734;28;20020;-69
2022/12/27 14:49:14;;;;;;;1.77;0.70;;;10.70;99.90;;;;;;5060961;28;20028;-69
2022/12/27 14:52:01;;;;;;;1.35;0.70;;;10.70;99.90;;;;;;5078940;28;20477;-69
2022/12/27 14:54:58;;;;;;;4.78;1.23;;;10.60;99.90;;;;;;5078783;28;20097;-69
2022/12/27 14:57:46;;;;;;;2.08;0.90;;;10.70;99.90;;;;;;5045053;28;20037;-69
2022/12/27 15:00:24;;;;;;;1.30;0.60;;;10.60;99.90;;;;;;5060437;28;20397;-69
2022/12/27 15:03:05;;;;;;;2.42;0.80;;;10.60;99.90;;;;;;5078269;28;20025;-69